Jarvisburg, North Carolina
Current Conditions -  °F | °C
As of 11:35 AM on Friday 24 Oct 2014 (Local Time) from KONX Reporting Station
Clear Clear  
Wind Chill: 17°   Ceiling: Unl
Heat Index: 17°   Visibility: 10mi
Dew Point:   Wind: 13mph
Humidity: 49%   Direction: 340°NNW
Pressure: 29.98"   Gusts: 18mph
Location:  36.2°N, 75.87°W
Report Text: KONX 241535Z AUTO 34011G16KT 10SM CLR 17/06 A2998 RMK AO2 T01730064
Loading
Personal Weather Stations






























Interactive Weather Map
Tropical Storm Tracking
New forecast layout! Learn more

10-Day Weather Forecast

Advertisements
Track Severe Weather on mobile